Main page
METAR-TAF:

METAR-TAF

Airports :

Šiauliai International Airport

Šiauliai, Lithuania

latitude: 55-53-38N, longitude: 023-23-42E, elevation: 135 m

Current weather observation

The report was made 15 minutes ago, at 20:20 UTC
Wind 8 kt from the Southwest
Temperature 11°C
Humidity 94%
Pressure 1012 hPa
Visibility 10 km or more
no clouds below 1500 m and no cumulonimbus

METAR: EYSA 222020Z 22008KT CAVOK 11/10 Q1012 BLU NOSIG

Time: 23:35 (20:35 UTC)

Forecast

The report was made 35 minutes ago, at 20:00 UTC
Forecast valid from 22 at 21 UTC to 23 at 06 UTC
Wind 5 kt from variable directions
Visibility: 7000 m
Temporary
from 22 at 21 UTC to 23 at 03 UTC
Visibility: 3000 m
Scattered clouds at a height of 500 ft
Shallow fog, mist
Probability 40% :
Temporary
from 22 at 21 UTC to 23 at 03 UTC
Visibility: 0500 m
at a height of 200 ft
fog

TAF: EYSA 222000Z 2221/2306 VRB05KT 7000 NSC TEMPO 2221/2303 3000 MIFG BR SCT005 PROB40 TEMPO 2221/2303 0500 FG VV002

Weather observations and forecasts of more than 4000 airports (METAR and TAF reports).

The available stations are represented by yellow and red dots on the map.

Hover mouse over dot to see the name of the station.

Then click to see weather observations and forecasts.

To change the map : click on the green buttons with a black cross to zoom in, on the green button with a dash to zoom out, or on the green arrows for adjacent maps.


METAR-TAF: